sensor_id;sensor_type;location;lat;lon;timestamp;pressure;altitude;pressure_sealevel;temperature;humidity
3250;BME280;1637;42.020;23.992;2023-04-04T00:00:36;91374.03;;;7.27;100.00
3250;BME280;1637;42.020;23.992;2023-04-04T00:03:04;91360.34;;;7.09;100.00
3250;BME280;1637;42.020;23.992;2023-04-04T00:05:30;91362.44;;;7.01;100.00
3250;BME280;1637;42.020;23.992;2023-04-04T00:07:59;91352.66;;;6.95;100.00
3250;BME280;1637;42.020;23.992;2023-04-04T00:10:27;91348.94;;;7.08;100.00
3250;BME280;1637;42.020;23.992;2023-04-04T00:12:54;91350.63;;;7.18;100.00
3250;BME280;1637;42.020;23.992;2023-04-04T00:15:21;91350.72;;;7.15;100.00
3250;BME280;1637;42.020;23.992;2023-04-04T00:17:48;91350.91;;;7.24;100.00
3250;BME280;1637;42.020;23.992;2023-04-04T00:20:16;91340.50;;;7.46;100.00
3250;BME280;1637;42.020;23.992;2023-04-04T00:22:43;91338.50;;;7.17;100.00
3250;BME280;1637;42.020;23.992;2023-04-04T00:25:10;91339.38;;;7.11;100.00
3250;BME280;1637;42.020;23.992;2023-04-04T00:27:38;91330.16;;;7.15;100.00
3250;BME280;1637;42.020;23.992;2023-04-04T00:30:06;91342.38;;;7.13;100.00
3250;BME280;1637;42.020;23.992;2023-04-04T00:32:33;91341.50;;;7.19;100.00
3250;BME280;1637;42.020;23.992;2023-04-04T00:35:00;91346.13;;;7.15;100.00
3250;BME280;1637;42.020;23.992;2023-04-04T00:37:27;91347.63;;;7.16;100.00
3250;BME280;1637;42.020;23.992;2023-04-04T00:39:54;91352.56;;;7.18;100.00
3250;BME280;1637;42.020;23.992;2023-04-04T00:42:20;91343.72;;;7.05;100.00
3250;BME280;1637;42.020;23.992;2023-04-04T00:44:50;91338.69;;;7.07;100.00
3250;BME280;1637;42.020;23.992;2023-04-04T00:47:18;91332.69;;;7.22;100.00
3250;BME280;1637;42.020;23.992;2023-04-04T00:49:45;91335.41;;;7.19;100.00
3250;BME280;1637;42.020;23.992;2023-04-04T00:52:11;91348.88;;;7.28;100.00
3250;BME280;1637;42.020;23.992;2023-04-04T00:54:39;91347.25;;;7.50;100.00
3250;BME280;1637;42.020;23.992;2023-04-04T00:57:07;91345.31;;;7.51;100.00
3250;BME280;1637;42.020;23.992;2023-04-04T00:59:34;91341.41;;;7.39;100.00
3250;BME280;1637;42.020;23.992;2023-04-04T01:02:03;91335.00;;;7.37;100.00
3250;BME280;1637;42.020;23.992;2023-04-04T01:04:29;91340.59;;;7.42;100.00
3250;BME280;1637;42.020;23.992;2023-04-04T01:06:57;91324.63;;;7.42;100.00
3250;BME280;1637;42.020;23.992;2023-04-04T01:09:24;91330.75;;;7.23;100.00
3250;BME280;1637;42.020;23.992;2023-04-04T01:11:51;91347.44;;;7.07;100.00
3250;BME280;1637;42.020;23.992;2023-04-04T01:14:19;91351.66;;;7.41;100.00
3250;BME280;1637;42.020;23.992;2023-04-04T01:16:46;91345.16;;;7.42;100.00
3250;BME280;1637;42.020;23.992;2023-04-04T01:19:28;91351.25;;;7.58;100.00
3250;BME280;1637;42.020;23.992;2023-04-04T01:21:56;91351.09;;;7.66;100.00
3250;BME280;1637;42.020;23.992;2023-04-04T01:24:25;91349.41;;;7.72;100.00
3250;BME280;1637;42.020;23.992;2023-04-04T01:26:55;91355.75;;;7.62;100.00
3250;BME280;1637;42.020;23.992;2023-04-04T01:29:22;91353.91;;;7.58;100.00
3250;BME280;1637;42.020;23.992;2023-04-04T01:31:55;91344.19;;;7.68;100.00
3250;BME280;1637;42.020;23.992;2023-04-04T01:34:28;91337.34;;;7.67;100.00
3250;BME280;1637;42.020;23.992;2023-04-04T01:37:02;91343.59;;;7.61;100.00
3250;BME280;1637;42.020;23.992;2023-04-04T01:39:35;91335.94;;;7.46;100.00
3250;BME280;1637;42.020;23.992;2023-04-04T01:42:07;91335.94;;;7.46;100.00
3250;BME280;1637;42.020;23.992;2023-04-04T01:44:35;91332.94;;;7.44;100.00
3250;BME280;1637;42.020;23.992;2023-04-04T01:47:04;91331.75;;;7.78;100.00
3250;BME280;1637;42.020;23.992;2023-04-04T01:49:32;91330.75;;;7.88;100.00
3250;BME280;1637;42.020;23.992;2023-04-04T01:52:00;91294.97;;;7.56;100.00
3250;BME280;1637;42.020;23.992;2023-04-04T01:54:27;91331.66;;;7.81;100.00
3250;BME280;1637;42.020;23.992;2023-04-04T01:56:54;91329.19;;;7.58;100.00
3250;BME280;1637;42.020;23.992;2023-04-04T01:59:23;91338.75;;;7.72;100.00
3250;BME280;1637;42.020;23.992;2023-04-04T02:01:50;91318.16;;;7.72;100.00
3250;BME280;1637;42.020;23.992;2023-04-04T02:04:17;91319.22;;;7.91;100.00
3250;BME280;1637;42.020;23.992;2023-04-04T02:06:44;91326.41;;;7.78;100.00
3250;BME280;1637;42.020;23.992;2023-04-04T02:09:11;91322.69;;;7.59;100.00
3250;BME280;1637;42.020;23.992;2023-04-04T02:11:38;91323.44;;;7.59;100.00
3250;BME280;1637;42.020;23.992;2023-04-04T02:14:05;91331.66;;;7.81;100.00
3250;BME280;1637;42.020;23.992;2023-04-04T02:16:33;91334.94;;;7.56;100.00
3250;BME280;1637;42.020;23.992;2023-04-04T02:19:00;91339.59;;;7.52;100.00
3250;BME280;1637;42.020;23.992;2023-04-04T02:21:27;91332.41;;;7.49;100.00
3250;BME280;1637;42.020;23.992;2023-04-04T02:23:54;91336.59;;;7.50;100.00
3250;BME280;1637;42.020;23.992;2023-04-04T02:26:20;91335.09;;;7.49;100.00
3250;BME280;1637;42.020;23.992;2023-04-04T02:28:47;91342.91;;;7.40;100.00
3250;BME280;1637;42.020;23.992;2023-04-04T02:31:14;91341.75;;;7.41;100.00
3250;BME280;1637;42.020;23.992;2023-04-04T02:33:42;91350.91;;;7.24;100.00
3250;BME280;1637;42.020;23.992;2023-04-04T02:36:09;91355.53;;;7.04;100.00
3250;BME280;1637;42.020;23.992;2023-04-04T02:38:37;91373.59;;;7.12;100.00
3250;BME280;1637;42.020;23.992;2023-04-04T02:41:03;91362.97;;;6.93;100.00
3250;BME280;1637;42.020;23.992;2023-04-04T02:43:30;91370.63;;;6.90;100.00
3250;BME280;1637;42.020;23.992;2023-04-04T02:45:57;91366.06;;;6.71;100.00
3250;BME280;1637;42.020;23.992;2023-04-04T02:48:24;91371.72;;;6.73;100.00
3250;BME280;1637;42.020;23.992;2023-04-04T02:50:53;91371.88;;;6.66;100.00
3250;BME280;1637;42.020;23.992;2023-04-04T02:53:20;91380.75;;;6.40;100.00
3250;BME280;1637;42.020;23.992;2023-04-04T02:55:46;91386.13;;;6.36;100.00
3250;BME280;1637;42.020;23.992;2023-04-04T02:58:14;91379.78;;;6.30;100.00
3250;BME280;1637;42.020;23.992;2023-04-04T03:00:41;91385.44;;;6.32;100.00
3250;BME280;1637;42.020;23.992;2023-04-04T03:03:08;91360.34;;;6.13;100.00
3250;BME280;1637;42.020;23.992;2023-04-04T03:05:35;91374.16;;;6.25;100.00
3250;BME280;1637;42.020;23.992;2023-04-04T03:08:04;91356.59;;;6.31;100.00
3250;BME280;1637;42.020;23.992;2023-04-04T03:10:30;91354.91;;;6.60;100.00
3250;BME280;1637;42.020;23.992;2023-04-04T03:12:57;91360.81;;;6.48;100.00
3250;BME280;1637;42.020;23.992;2023-04-04T03:15:25;91358.16;;;6.28;100.00
3250;BME280;1637;42.020;23.992;2023-04-04T03:17:52;91353.97;;;6.07;100.00
3250;BME280;1637;42.020;23.992;2023-04-04T03:20:19;91350.78;;;5.96;100.00
3250;BME280;1637;42.020;23.992;2023-04-04T03:22:46;91369.09;;;5.91;100.00
3250;BME280;1637;42.020;23.992;2023-04-04T03:25:15;91344.16;;;6.04;100.00
3250;BME280;1637;42.020;23.992;2023-04-04T03:27:42;91314.38;;;5.70;100.00
3250;BME280;1637;42.020;23.992;2023-04-04T03:30:09;91341.94;;;5.79;100.00
3250;BME280;1637;42.020;23.992;2023-04-04T03:32:36;91348.50;;;5.71;100.00
3250;BME280;1637;42.020;23.992;2023-04-04T03:35:04;91352.66;;;5.72;100.00
3250;BME280;1637;42.020;23.992;2023-04-04T03:37:31;91326.47;;;5.51;100.00
3250;BME280;1637;42.020;23.992;2023-04-04T03:39:58;91343.03;;;5.59;100.00
3250;BME280;1637;42.020;23.992;2023-04-04T03:42:26;91349.41;;;5.61;100.00
3250;BME280;1637;42.020;23.992;2023-04-04T03:44:55;91340.88;;;5.50;100.00
3250;BME280;1637;42.020;23.992;2023-04-04T03:47:21;91343.78;;;5.59;100.00
3250;BME280;1637;42.020;23.992;2023-04-04T03:49:48;91334.13;;;5.45;100.00
3250;BME280;1637;42.020;23.992;2023-04-04T03:52:16;91341.25;;;5.52;100.00
3250;BME280;1637;42.020;23.992;2023-04-04T03:54:44;91354.97;;;5.47;100.00
3250;BME280;1637;42.020;23.992;2023-04-04T03:57:11;91361.47;;;5.42;100.00
3250;BME280;1637;42.020;23.992;2023-04-04T03:59:39;91361.38;;;5.49;100.00
3250;BME280;1637;42.020;23.992;2023-04-04T04:02:06;91368.94;;;5.51;100.00
3250;BME280;1637;42.020;23.992;2023-04-04T04:04:33;91363.94;;;5.57;100.00
3250;BME280;1637;42.020;23.992;2023-04-04T04:07:00;91332.81;;;5.34;100.00
3250;BME280;1637;42.020;23.992;2023-04-04T04:09:27;91370.75;;;5.81;100.00
3250;BME280;1637;42.020;23.992;2023-04-04T04:11:54;91332.81;;;5.80;100.00
3250;BME280;1637;42.020;23.992;2023-04-04T04:14:21;91371.59;;;6.21;100.00
3250;BME280;1637;42.020;23.992;2023-04-04T04:16:49;91368.66;;;6.15;100.00
3250;BME280;1637;42.020;23.992;2023-04-04T04:19:16;91373.38;;;6.28;100.00
3250;BME280;1637;42.020;23.992;2023-04-04T04:21:43;91377.09;;;6.10;100.00
3250;BME280;1637;42.020;23.992;2023-04-04T04:24:10;91380.91;;;5.86;100.00
3250;BME280;1637;42.020;23.992;2023-04-04T04:26:36;91383.78;;;5.72;100.00
3250;BME280;1637;42.020;23.992;2023-04-04T04:29:03;91372.88;;;5.66;100.00
3250;BME280;1637;42.020;23.992;2023-04-04T04:31:31;91375.72;;;5.79;100.00
3250;BME280;1637;42.020;23.992;2023-04-04T04:33:59;91372.47;;;5.68;100.00
3250;BME280;1637;42.020;23.992;2023-04-04T04:36:27;91379.34;;;5.65;100.00
3250;BME280;1637;42.020;23.992;2023-04-04T04:38:54;91381.25;;;5.65;100.00
3250;BME280;1637;42.020;23.992;2023-04-04T04:41:21;91383.53;;;5.63;100.00
3250;BME280;1637;42.020;23.992;2023-04-04T04:43:48;91392.91;;;5.71;100.00
3250;BME280;1637;42.020;23.992;2023-04-04T04:46:14;91378.22;;;5.63;100.00
3250;BME280;1637;42.020;23.992;2023-04-04T04:48:42;91392.16;;;5.70;100.00
3250;BME280;1637;42.020;23.992;2023-04-04T04:51:10;91384.03;;;5.81;100.00
3250;BME280;1637;42.020;23.992;2023-04-04T04:53:38;91397.97;;;5.89;100.00
3250;BME280;1637;42.020;23.992;2023-04-04T04:56:05;91399.22;;;6.04;100.00
3250;BME280;1637;42.020;23.992;2023-04-04T04:58:32;91388.97;;;6.26;100.00
3250;BME280;1637;42.020;23.992;2023-04-04T05:00:59;91391.09;;;6.54;100.00
3250;BME280;1637;42.020;23.992;2023-04-04T05:03:27;91406.59;;;6.59;100.00
3250;BME280;1637;42.020;23.992;2023-04-04T05:05:54;91402.91;;;6.53;100.00
3250;BME280;1637;42.020;23.992;2023-04-04T05:08:23;91407.47;;;6.52;100.00
3250;BME280;1637;42.020;23.992;2023-04-04T05:10:49;91402.56;;;6.90;100.00
3250;BME280;1637;42.020;23.992;2023-04-04T05:13:17;91402.03;;;7.15;100.00
3250;BME280;1637;42.020;23.992;2023-04-04T05:15:45;91408.63;;;7.47;100.00
3250;BME280;1637;42.020;23.992;2023-04-04T05:18:12;91411.69;;;7.45;100.00
3250;BME280;1637;42.020;23.992;2023-04-04T05:20:39;91401.72;;;7.13;100.00
3250;BME280;1637;42.020;23.992;2023-04-04T05:23:05;91398.38;;;6.89;100.00
3250;BME280;1637;42.020;23.992;2023-04-04T05:25:34;91400.53;;;6.78;100.00
3250;BME280;1637;42.020;23.992;2023-04-04T05:28:00;91397.94;;;7.11;100.00
3250;BME280;1637;42.020;23.992;2023-04-04T05:30:28;91396.94;;;7.41;100.00
3250;BME280;1637;42.020;23.992;2023-04-04T05:32:55;91404.03;;;7.47;100.00
3250;BME280;1637;42.020;23.992;2023-04-04T05:35:21;91392.69;;;7.92;100.00
3250;BME280;1637;42.020;23.992;2023-04-04T05:37:49;91397.69;;;7.90;100.00
3250;BME280;1637;42.020;23.992;2023-04-04T05:40:16;91395.00;;;8.22;100.00
3250;BME280;1637;42.020;23.992;2023-04-04T05:42:52;91360.47;;;8.48;100.00
3250;BME280;1637;42.020;23.992;2023-04-04T05:45:19;91396.13;;;7.92;100.00
3250;BME280;1637;42.020;23.992;2023-04-04T05:47:46;91404.44;;;8.27;100.00
3250;BME280;1637;42.020;23.992;2023-04-04T05:50:13;91398.75;;;8.41;100.00
3250;BME280;1637;42.020;23.992;2023-04-04T05:52:40;91396.53;;;8.07;100.00
3250;BME280;1637;42.020;23.992;2023-04-04T05:55:07;91390.88;;;8.05;100.00
3250;BME280;1637;42.020;23.992;2023-04-04T05:57:34;91404.13;;;8.09;100.00
3250;BME280;1637;42.020;23.992;2023-04-04T06:00:03;91403.03;;;8.06;100.00
3250;BME280;1637;42.020;23.992;2023-04-04T06:02:30;91400.75;;;8.21;100.00
3250;BME280;1637;42.020;23.992;2023-04-04T06:04:57;91443.13;;;8.03;100.00
3250;BME280;1637;42.020;23.992;2023-04-04T06:07:24;91412.19;;;8.21;100.00
3250;BME280;1637;42.020;23.992;2023-04-04T06:09:50;91415.84;;;8.27;100.00
3250;BME280;1637;42.020;23.992;2023-04-04T06:12:17;91405.91;;;8.73;100.00
3250;BME280;1637;42.020;23.992;2023-04-04T06:14:44;91413.25;;;8.98;100.00
3250;BME280;1637;42.020;23.992;2023-04-04T06:17:12;91421.56;;;8.87;100.00
3250;BME280;1637;42.020;23.992;2023-04-04T06:19:39;91417.69;;;8.47;100.00
3250;BME280;1637;42.020;23.992;2023-04-04T06:22:06;91418.19;;;8.42;100.00
3250;BME280;1637;42.020;23.992;2023-04-04T06:24:32;91420.50;;;8.40;100.00
3250;BME280;1637;42.020;23.992;2023-04-04T06:26:59;91436.94;;;8.38;100.00
3250;BME280;1637;42.020;23.992;2023-04-04T06:29:26;91434.34;;;8.51;100.00
3250;BME280;1637;42.020;23.992;2023-04-04T06:31:53;91434.34;;;8.51;100.00
3250;BME280;1637;42.020;23.992;2023-04-04T06:34:21;91437.75;;;8.51;100.00
3250;BME280;1637;42.020;23.992;2023-04-04T06:36:48;91428.03;;;8.28;100.00
3250;BME280;1637;42.020;23.992;2023-04-04T06:39:15;91439.53;;;8.09;100.00
3250;BME280;1637;42.020;23.992;2023-04-04T06:41:41;91422.69;;;7.96;100.00
3250;BME280;1637;42.020;23.992;2023-04-04T06:44:08;91444.63;;;8.04;100.00
3250;BME280;1637;42.020;23.992;2023-04-04T06:46:36;91445.84;;;7.99;100.00
3250;BME280;1637;42.020;23.992;2023-04-04T06:49:03;91451.53;;;8.01;100.00
3250;BME280;1637;42.020;23.992;2023-04-04T06:51:32;91441.53;;;8.05;100.00
3250;BME280;1637;42.020;23.992;2023-04-04T06:53:59;91445.78;;;8.19;100.00
3250;BME280;1637;42.020;23.992;2023-04-04T06:56:27;91455.63;;;8.38;100.00
3250;BME280;1637;42.020;23.992;2023-04-04T06:58:53;91452.13;;;8.41;100.00
3250;BME280;1637;42.020;23.992;2023-04-04T07:01:20;91456.13;;;8.49;100.00
3250;BME280;1637;42.020;23.992;2023-04-04T07:03:47;91459.50;;;8.66;100.00
3250;BME280;1637;42.020;23.992;2023-04-04T07:06:14;91466.78;;;8.78;100.00
3250;BME280;1637;42.020;23.992;2023-04-04T07:08:43;91469.97;;;8.73;100.00
3250;BME280;1637;42.020;23.992;2023-04-04T07:11:10;91471.47;;;8.74;100.00
3250;BME280;1637;42.020;23.992;2023-04-04T07:13:36;91470.75;;;8.57;100.00
3250;BME280;1637;42.020;23.992;2023-04-04T07:16:04;91469.09;;;8.64;100.00
3250;BME280;1637;42.020;23.992;2023-04-04T07:18:30;91471.63;;;8.83;100.00
3250;BME280;1637;42.020;23.992;2023-04-04T07:20:57;91469.72;;;9.25;100.00
3250;BME280;1637;42.020;23.992;2023-04-04T07:23:25;91475.13;;;9.51;100.00
3250;BME280;1637;42.020;23.992;2023-04-04T07:25:53;91471.50;;;9.70;100.00
3250;BME280;1637;42.020;23.992;2023-04-04T07:28:20;91468.84;;;9.83;98.92
3250;BME280;1637;42.020;23.992;2023-04-04T07:30:47;91480.28;;;10.09;98.75
3250;BME280;1637;42.020;23.992;2023-04-04T07:33:13;91482.75;;;10.28;95.98
3250;BME280;1637;42.020;23.992;2023-04-04T07:35:40;91479.53;;;10.08;96.26
3250;BME280;1637;42.020;23.992;2023-04-04T07:38:07;91480.72;;;10.32;98.17
3250;BME280;1637;42.020;23.992;2023-04-04T07:40:34;91482.72;;;10.54;96.55
3250;BME280;1637;42.020;23.992;2023-04-04T07:43:03;91476.19;;;10.42;95.45
3250;BME280;1637;42.020;23.992;2023-04-04T07:45:29;91481.22;;;10.53;93.00
3250;BME280;1637;42.020;23.992;2023-04-04T07:47:56;91485.97;;;10.23;94.66
3250;BME280;1637;42.020;23.992;2023-04-04T07:50:23;91491.50;;;9.78;95.46
3250;BME280;1637;42.020;23.992;2023-04-04T07:52:50;91478.97;;;9.50;96.10
3250;BME280;1637;42.020;23.992;2023-04-04T07:55:18;91477.91;;;9.47;99.34
3250;BME280;1637;42.020;23.992;2023-04-04T07:57:45;91514.84;;;9.36;99.35
3250;BME280;1637;42.020;23.992;2023-04-04T08:00:14;91486.34;;;9.58;96.88
3250;BME280;1637;42.020;23.992;2023-04-04T08:02:42;91487.09;;;9.59;95.44
3250;BME280;1637;42.020;23.992;2023-04-04T08:05:09;91483.66;;;9.46;97.58
3250;BME280;1637;42.020;23.992;2023-04-04T08:07:36;91491.06;;;9.54;97.03
3250;BME280;1637;42.020;23.992;2023-04-04T08:10:04;91491.09;;;9.25;98.42
3250;BME280;1637;42.020;23.992;2023-04-04T08:12:31;91489.50;;;9.28;99.66
3250;BME280;1637;42.020;23.992;2023-04-04T08:14:58;91481.13;;;9.55;100.00
3250;BME280;1637;42.020;23.992;2023-04-04T08:17:27;91486.28;;;9.75;100.00
3250;BME280;1637;42.020;23.992;2023-04-04T08:19:54;91491.09;;;10.05;96.64
3250;BME280;1637;42.020;23.992;2023-04-04T08:22:21;91488.84;;;10.16;95.28
3250;BME280;1637;42.020;23.992;2023-04-04T08:24:48;91485.09;;;10.01;94.88
3250;BME280;1637;42.020;23.992;2023-04-04T08:27:15;91485.31;;;9.94;94.92
3250;BME280;1637;42.020;23.992;2023-04-04T08:29:41;91491.53;;;10.29;97.01
3250;BME280;1637;42.020;23.992;2023-04-04T08:32:09;91494.34;;;10.73;95.96
3250;BME280;1637;42.020;23.992;2023-04-04T08:34:38;91496.56;;;11.21;96.86
3250;BME280;1637;42.020;23.992;2023-04-04T08:37:05;91494.31;;;11.20;93.76
3250;BME280;1637;42.020;23.992;2023-04-04T08:39:32;91490.28;;;11.46;94.71
3250;BME280;1637;42.020;23.992;2023-04-04T08:42:01;91493.81;;;11.87;89.42
3250;BME280;1637;42.020;23.992;2023-04-04T08:44:30;91490.69;;;11.57;85.98
3250;BME280;1637;42.020;23.992;2023-04-04T08:46:58;91502.66;;;11.22;88.97
3250;BME280;1637;42.020;23.992;2023-04-04T08:49:25;91509.06;;;10.55;92.05
3250;BME280;1637;42.020;23.992;2023-04-04T08:51:55;91514.41;;;10.55;95.50
3250;BME280;1637;42.020;23.992;2023-04-04T08:54:24;91507.50;;;11.36;95.42
3250;BME280;1637;42.020;23.992;2023-04-04T08:56:52;91509.63;;;11.19;93.60
3250;BME280;1637;42.020;23.992;2023-04-04T08:59:20;91508.31;;;11.89;90.35
3250;BME280;1637;42.020;23.992;2023-04-04T09:01:47;91502.38;;;11.94;92.20
3250;BME280;1637;42.020;23.992;2023-04-04T09:04:16;91509.69;;;12.34;88.42
3250;BME280;1637;42.020;23.992;2023-04-04T09:06:44;91508.00;;;12.27;91.73
3250;BME280;1637;42.020;23.992;2023-04-04T09:09:13;91504.31;;;12.25;88.04
3250;BME280;1637;42.020;23.992;2023-04-04T09:11:42;91502.06;;;12.32;85.93
3250;BME280;1637;42.020;23.992;2023-04-04T09:14:11;91495.38;;;12.37;86.90
3250;BME280;1637;42.020;23.992;2023-04-04T09:16:38;91497.50;;;12.51;86.42
3250;BME280;1637;42.020;23.992;2023-04-04T09:19:05;91499.25;;;12.36;86.53
3250;BME280;1637;42.020;23.992;2023-04-04T09:21:32;91495.25;;;12.00;85.57
3250;BME280;1637;42.020;23.992;2023-04-04T09:23:59;91491.25;;;12.54;89.33
3250;BME280;1637;42.020;23.992;2023-04-04T09:26:28;91485.50;;;13.01;81.51
3250;BME280;1637;42.020;23.992;2023-04-04T09:28:55;91491.66;;;13.29;83.10
3250;BME280;1637;42.020;23.992;2023-04-04T09:31:23;91479.22;;;13.14;86.81
3250;BME280;1637;42.020;23.992;2023-04-04T09:33:50;91476.41;;;13.17;85.20
3250;BME280;1637;42.020;23.992;2023-04-04T09:36:17;91480.13;;;13.56;81.96
3250;BME280;1637;42.020;23.992;2023-04-04T09:38:44;91471.34;;;13.37;80.54
3250;BME280;1637;42.020;23.992;2023-04-04T09:41:14;91458.75;;;13.62;78.83
3250;BME280;1637;42.020;23.992;2023-04-04T09:43:45;91476.38;;;14.14;72.42
3250;BME280;1637;42.020;23.992;2023-04-04T09:46:13;91475.91;;;14.25;71.45
3250;BME280;1637;42.020;23.992;2023-04-04T09:48:48;91475.97;;;14.39;72.62
3250;BME280;1637;42.020;23.992;2023-04-04T09:51:16;91477.13;;;14.57;67.27
3250;BME280;1637;42.020;23.992;2023-04-04T09:53:46;91476.09;;;14.54;71.26
3250;BME280;1637;42.020;23.992;2023-04-04T09:56:13;91483.53;;;14.59;70.71
3250;BME280;1637;42.020;23.992;2023-04-04T09:58:40;91475.22;;;14.06;67.27
3250;BME280;1637;42.020;23.992;2023-04-04T10:01:13;91477.41;;;14.83;65.61
3250;BME280;1637;42.020;23.992;2023-04-04T10:03:40;91480.63;;;14.72;64.72
3250;BME280;1637;42.020;23.992;2023-04-04T10:06:08;91468.81;;;14.46;69.31
3250;BME280;1637;42.020;23.992;2023-04-04T10:08:38;91469.91;;;14.63;67.28
3250;BME280;1637;42.020;23.992;2023-04-04T10:11:05;91469.25;;;13.93;68.04
3250;BME280;1637;42.020;23.992;2023-04-04T10:13:33;91466.06;;;13.61;70.85
3250;BME280;1637;42.020;23.992;2023-04-04T10:16:02;91470.84;;;13.66;71.17
3250;BME280;1637;42.020;23.992;2023-04-04T10:18:32;91476.38;;;13.63;68.96
3250;BME280;1637;42.020;23.992;2023-04-04T10:21:00;91468.81;;;13.94;69.05
3250;BME280;1637;42.020;23.992;2023-04-04T10:23:28;91480.97;;;13.90;69.38
3250;BME280;1637;42.020;23.992;2023-04-04T10:25:55;91465.03;;;14.10;73.58
3250;BME280;1637;42.020;23.992;2023-04-04T10:28:23;91466.19;;;14.18;71.62
3250;BME280;1637;42.020;23.992;2023-04-04T10:30:56;91454.56;;;13.52;72.73
3250;BME280;1637;42.020;23.992;2023-04-04T10:33:36;91456.44;;;13.88;71.89
3250;BME280;1637;42.020;23.992;2023-04-04T10:36:06;91454.34;;;14.58;66.97
3250;BME280;1637;42.020;23.992;2023-04-04T10:38:40;91464.22;;;14.85;65.36
3250;BME280;1637;42.020;23.992;2023-04-04T10:41:07;91454.88;;;14.47;63.01
3250;BME280;1637;42.020;23.992;2023-04-04T10:43:39;91462.28;;;14.85;60.65
3250;BME280;1637;42.020;23.992;2023-04-04T10:46:10;91474.72;;;15.06;61.25
3250;BME280;1637;42.020;23.992;2023-04-04T10:48:40;91461.91;;;14.35;61.67
3250;BME280;1637;42.020;23.992;2023-04-04T10:51:07;91462.28;;;14.61;62.10
3250;BME280;1637;42.020;23.992;2023-04-04T10:53:37;91461.00;;;14.38;66.03
3250;BME280;1637;42.020;23.992;2023-04-04T10:56:05;91461.72;;;15.20;64.47
3250;BME280;1637;42.020;23.992;2023-04-04T10:58:38;91449.03;;;14.96;63.91
3250;BME280;1637;42.020;23.992;2023-04-04T11:01:06;91453.75;;;15.40;65.33
3250;BME280;1637;42.020;23.992;2023-04-04T11:04:17;91445.19;;;14.88;68.83
3250;BME280;1637;42.020;23.992;2023-04-04T11:07:03;91439.91;;;13.71;75.56
3250;BME280;1637;42.020;23.992;2023-04-04T11:09:50;91445.19;;;13.47;77.07
3250;BME280;1637;42.020;23.992;2023-04-04T11:12:28;91443.97;;;13.57;80.50
3250;BME280;1637;42.020;23.992;2023-04-04T11:15:06;91439.47;;;13.63;78.71
3250;BME280;1637;42.020;23.992;2023-04-04T11:20:32;91438.69;;;13.72;76.30
3250;BME280;1637;42.020;23.992;2023-04-04T11:23:03;91445.25;;;13.80;76.16
3250;BME280;1637;42.020;23.992;2023-04-04T11:25:32;91445.34;;;13.34;76.33
3250;BME280;1637;42.020;23.992;2023-04-04T11:28:04;91445.75;;;13.51;77.50
3250;BME280;1637;42.020;23.992;2023-04-04T11:30:36;91440.09;;;14.00;74.91
3250;BME280;1637;42.020;23.992;2023-04-04T11:33:08;91455.41;;;14.27;72.93
3250;BME280;1637;42.020;23.992;2023-04-04T11:35:45;91450.03;;;13.85;74.39
3250;BME280;1637;42.020;23.992;2023-04-04T11:38:13;91446.09;;;13.95;73.33
3250;BME280;1637;42.020;23.992;2023-04-04T11:40:51;91450.94;;;13.73;76.88
3250;BME280;1637;42.020;23.992;2023-04-04T11:43:19;91437.69;;;13.51;75.36
3250;BME280;1637;42.020;23.992;2023-04-04T11:45:46;91418.16;;;13.41;76.50
3250;BME280;1637;42.020;23.992;2023-04-04T11:48:15;91401.59;;;12.88;77.12
3250;BME280;1637;42.020;23.992;2023-04-04T11:50:46;91435.47;;;13.13;76.29
3250;BME280;1637;42.020;23.992;2023-04-04T11:53:16;91439.25;;;13.25;77.19
3250;BME280;1637;42.020;23.992;2023-04-04T11:55:46;91443.06;;;13.60;75.90
3250;BME280;1637;42.020;23.992;2023-04-04T11:58:16;91443.09;;;13.42;74.46
3250;BME280;1637;42.020;23.992;2023-04-04T12:00:43;91441.59;;;13.14;75.96
3250;BME280;1637;42.020;23.992;2023-04-04T12:03:11;91444.88;;;12.72;77.37
3250;BME280;1637;42.020;23.992;2023-04-04T12:05:38;91442.19;;;12.99;77.59
3250;BME280;1637;42.020;23.992;2023-04-04T12:08:09;91438.59;;;12.75;77.79
3250;BME280;1637;42.020;23.992;2023-04-04T12:10:38;91443.78;;;12.42;78.04
3250;BME280;1637;42.020;23.992;2023-04-04T12:13:06;91434.72;;;12.67;77.60
3250;BME280;1637;42.020;23.992;2023-04-04T12:15:34;91436.94;;;12.68;75.56
3250;BME280;1637;42.020;23.992;2023-04-04T12:18:02;91398.13;;;12.33;74.87
3250;BME280;1637;42.020;23.992;2023-04-04T12:20:31;91444.56;;;12.61;74.50
3250;BME280;1637;42.020;23.992;2023-04-04T12:22:59;91446.88;;;12.31;74.16
3250;BME280;1637;42.020;23.992;2023-04-04T12:25:27;91440.06;;;12.49;74.99
3250;BME280;1637;42.020;23.992;2023-04-04T12:27:58;91442.78;;;12.67;74.72
3250;BME280;1637;42.020;23.992;2023-04-04T12:30:28;91439.50;;;12.81;72.21
3250;BME280;1637;42.020;23.992;2023-04-04T12:32:55;91439.66;;;13.05;73.24
3250;BME280;1637;42.020;23.992;2023-04-04T12:35:22;91429.66;;;12.78;73.44
3250;BME280;1637;42.020;23.992;2023-04-04T12:37:57;91408.00;;;12.91;72.32
3250;BME280;1637;42.020;23.992;2023-04-04T12:40:30;91432.81;;;13.04;71.12
3250;BME280;1637;42.020;23.992;2023-04-04T12:42:58;91431.59;;;12.96;71.68
3250;BME280;1637;42.020;23.992;2023-04-04T12:45:25;91440.09;;;12.94;73.21
3250;BME280;1637;42.020;23.992;2023-04-04T12:47:53;91430.09;;;12.95;72.39
3250;BME280;1637;42.020;23.992;2023-04-04T12:50:22;91439.22;;;12.79;72.11
3250;BME280;1637;42.020;23.992;2023-04-04T12:52:51;91453.69;;;12.82;72.66
3250;BME280;1637;42.020;23.992;2023-04-04T12:55:20;91435.91;;;12.75;72.09
3250;BME280;1637;42.020;23.992;2023-04-04T12:57:49;91432.19;;;12.72;71.42
3250;BME280;1637;42.020;23.992;2023-04-04T13:00:19;91442.28;;;12.50;73.65
3250;BME280;1637;42.020;23.992;2023-04-04T13:02:48;91447.38;;;12.48;72.47
3250;BME280;1637;42.020;23.992;2023-04-04T13:05:17;91437.78;;;12.20;71.63
3250;BME280;1637;42.020;23.992;2023-04-04T13:07:46;91433.97;;;11.99;73.38
3250;BME280;1637;42.020;23.992;2023-04-04T13:10:14;91439.34;;;11.99;72.53
3250;BME280;1637;42.020;23.992;2023-04-04T13:12:53;91451.81;;;11.84;72.58
3250;BME280;1637;42.020;23.992;2023-04-04T13:15:23;91431.00;;;11.75;72.91
3250;BME280;1637;42.020;23.992;2023-04-04T13:17:50;91461.31;;;11.85;73.59
3250;BME280;1637;42.020;23.992;2023-04-04T13:20:19;91462.09;;;12.34;74.35